createdAt,value
2023-05-21T00:01:09.867Z,12.83
2023-05-21T00:03:44.659Z,12.85
2023-05-21T00:06:30.275Z,13.06
2023-05-21T00:09:04.337Z,13.19
2023-05-21T00:11:41.561Z,12.81
2023-05-21T00:14:17.570Z,12.76
2023-05-21T00:16:48.362Z,12.88
2023-05-21T00:19:26.047Z,12.96
2023-05-21T00:21:56.141Z,12.83
2023-05-21T00:24:34.551Z,12.84
2023-05-21T00:27:06.395Z,12.87
2023-05-21T00:29:50.576Z,12.60
2023-05-21T00:32:26.973Z,12.65
2023-05-21T00:35:01.252Z,12.51
2023-05-21T00:37:37.091Z,12.69
2023-05-21T00:40:24.840Z,12.67
2023-05-21T00:43:00.586Z,12.31
2023-05-21T00:45:40.248Z,12.11
2023-05-21T00:48:11.130Z,12.48
2023-05-21T00:50:41.048Z,12.44
2023-05-21T00:53:12.153Z,12.41
2023-05-21T00:55:43.831Z,12.65
2023-05-21T00:58:18.782Z,12.41
2023-05-21T01:03:42.969Z,12.44
2023-05-21T01:06:14.472Z,12.06
2023-05-21T01:08:47.950Z,12.17
2023-05-21T01:11:19.755Z,12.08
2023-05-21T01:13:57.658Z,11.74
2023-05-21T01:16:36.048Z,11.75
2023-05-21T01:19:21.491Z,12.00
2023-05-21T01:22:17.544Z,12.11
2023-05-21T01:24:51.141Z,12.24
2023-05-21T01:27:24.989Z,12.34
2023-05-21T01:30:02.836Z,12.17
2023-05-21T01:32:33.397Z,12.24
2023-05-21T01:35:21.806Z,12.20
2023-05-21T01:38:31.575Z,12.01
2023-05-21T01:41:10.963Z,12.11
2023-05-21T01:43:46.414Z,12.20
2023-05-21T01:46:21.163Z,12.09
2023-05-21T01:48:52.683Z,12.06
2023-05-21T01:51:24.712Z,11.77
2023-05-21T01:53:56.282Z,11.63
2023-05-21T01:56:47.345Z,11.41
2023-05-21T01:59:18.504Z,11.62
2023-05-21T02:01:58.435Z,11.76
2023-05-21T02:04:31.614Z,11.87
2023-05-21T02:07:05.163Z,11.95
2023-05-21T02:09:37.197Z,11.93
2023-05-21T02:14:53.918Z,11.44
2023-05-21T02:20:18.748Z,11.22
2023-05-21T02:22:52.329Z,11.32
2023-05-21T02:25:26.204Z,11.39
2023-05-21T02:28:12.107Z,11.35
2023-05-21T02:30:42.929Z,11.70
2023-05-21T02:33:17.459Z,11.71
2023-05-21T02:35:56.506Z,11.49
2023-05-21T02:38:28.498Z,11.49
2023-05-21T02:40:59.276Z,11.53
2023-05-21T02:43:31.624Z,11.78
2023-05-21T02:46:05.452Z,11.64
2023-05-21T02:48:33.459Z,11.61
2023-05-21T02:51:07.215Z,11.34
2023-05-21T02:53:51.619Z,11.22
2023-05-21T02:56:24.979Z,11.12
2023-05-21T02:58:55.817Z,11.33
2023-05-21T03:01:30.297Z,11.54
2023-05-21T03:04:01.914Z,11.05
2023-05-21T03:06:33.106Z,11.47
2023-05-21T03:09:13.188Z,11.54
2023-05-21T03:11:50.888Z,11.60
2023-05-21T03:14:32.984Z,11.56
2023-05-21T03:17:04.379Z,11.45
2023-05-21T03:19:36.939Z,10.93
2023-05-21T03:22:09.999Z,11.21
2023-05-21T03:24:50.195Z,11.20
2023-05-21T03:27:28.909Z,11.02
2023-05-21T03:30:00.561Z,11.12
2023-05-21T03:32:34.057Z,11.02
2023-05-21T03:35:21.850Z,11.06
2023-05-21T03:37:50.797Z,11.00
2023-05-21T03:40:22.573Z,11.18
2023-05-21T03:42:55.325Z,11.09
2023-05-21T03:45:29.144Z,11.20
2023-05-21T03:48:25.507Z,11.27
2023-05-21T03:50:58.861Z,11.29
2023-05-21T03:53:29.314Z,11.38
2023-05-21T03:56:02.896Z,11.35
2023-05-21T03:58:34.815Z,11.37
2023-05-21T04:01:05.517Z,11.08
2023-05-21T04:03:40.786Z,10.93
2023-05-21T04:06:18.786Z,11.06
2023-05-21T04:08:49.143Z,11.11
2023-05-21T04:11:31.182Z,11.28
2023-05-21T04:14:01.634Z,11.41
2023-05-21T04:16:49.414Z,11.37
2023-05-21T04:19:20.544Z,11.20
2023-05-21T04:21:51.549Z,11.63
2023-05-21T04:24:24.877Z,11.50
2023-05-21T04:27:16.701Z,11.56
2023-05-21T04:29:49.009Z,11.65
2023-05-21T04:32:25.783Z,11.77
2023-05-21T04:34:59.843Z,11.74
2023-05-21T04:37:39.529Z,11.78
2023-05-21T04:40:13.031Z,11.84
2023-05-21T04:42:53.385Z,11.98
2023-05-21T04:45:33.902Z,12.03
2023-05-21T04:48:08.121Z,12.10
2023-05-21T04:53:21.172Z,12.32
2023-05-21T04:55:51.905Z,12.41
2023-05-21T04:58:22.489Z,12.50
2023-05-21T05:00:56.266Z,12.61
2023-05-21T05:03:28.398Z,12.66
2023-05-21T05:05:57.968Z,12.62
2023-05-21T05:08:29.226Z,12.70
2023-05-21T05:11:02.370Z,12.75
2023-05-21T05:13:30.335Z,12.89
2023-05-21T05:16:01.606Z,13.01
2023-05-21T05:18:37.740Z,13.00
2023-05-21T05:21:12.913Z,13.00
2023-05-21T05:23:44.113Z,13.06
2023-05-21T05:26:15.606Z,13.07
2023-05-21T05:28:45.513Z,13.12
2023-05-21T05:31:21.359Z,13.17
2023-05-21T05:33:52.213Z,13.38
2023-05-21T05:36:24.958Z,13.51
2023-05-21T05:39:00.143Z,13.44
2023-05-21T05:41:31.836Z,13.62
2023-05-21T05:44:04.809Z,13.66
2023-05-21T05:46:40.099Z,13.72
2023-05-21T05:49:25.393Z,13.55
2023-05-21T05:52:04.455Z,13.92
2023-05-21T05:54:48.829Z,13.90
2023-05-21T05:57:19.597Z,14.11
2023-05-21T05:59:52.112Z,14.21
2023-05-21T06:02:31.818Z,14.38
2023-05-21T06:05:04.201Z,14.53
2023-05-21T06:07:35.598Z,14.60
2023-05-21T06:10:09.158Z,14.62
2023-05-21T06:12:38.914Z,14.82
2023-05-21T06:15:16.617Z,14.78
2023-05-21T06:17:54.364Z,14.86
2023-05-21T06:20:22.161Z,14.91
2023-05-21T06:22:56.140Z,14.69
2023-05-21T06:25:35.119Z,14.78
2023-05-21T06:28:06.509Z,14.95
2023-05-21T06:30:38.797Z,15.10
2023-05-21T06:33:15.419Z,15.19
2023-05-21T06:35:46.858Z,15.12
2023-05-21T06:38:24.295Z,15.51
2023-05-21T06:41:06.320Z,15.52
2023-05-21T06:44:03.333Z,15.68
2023-05-21T06:47:03.050Z,15.92
2023-05-21T06:49:36.870Z,16.08
2023-05-21T06:52:08.703Z,16.27
2023-05-21T06:54:54.225Z,16.39
2023-05-21T06:57:40.878Z,16.59
2023-05-21T07:00:23.048Z,16.78
2023-05-21T07:02:54.578Z,16.94
2023-05-21T07:05:41.158Z,17.22
2023-05-21T07:08:12.348Z,17.49
2023-05-21T07:10:46.374Z,18.18
2023-05-21T07:13:17.737Z,18.28
2023-05-21T07:15:55.128Z,18.35
2023-05-21T07:18:26.680Z,18.50
2023-05-21T07:20:56.049Z,19.01
2023-05-21T07:23:30.756Z,19.10
2023-05-21T07:26:01.426Z,19.30
2023-05-21T07:28:31.230Z,19.49
2023-05-21T07:31:04.878Z,19.48
2023-05-21T07:33:41.089Z,19.70
2023-05-21T07:36:18.198Z,19.92
2023-05-21T07:38:52.179Z,19.99
2023-05-21T07:41:23.908Z,20.19
2023-05-21T07:43:55.729Z,20.26
2023-05-21T07:46:30.929Z,20.37
2023-05-21T07:49:02.667Z,20.46
2023-05-21T07:51:40.144Z,20.59
2023-05-21T07:54:11.171Z,20.74
2023-05-21T07:56:47.365Z,20.94
2023-05-21T07:59:47.761Z,20.71
2023-05-21T08:02:33.188Z,20.72
2023-05-21T08:05:06.873Z,20.81
2023-05-21T08:10:28.128Z,21.09
2023-05-21T08:13:03.157Z,20.98
2023-05-21T08:15:37.438Z,20.96
2023-05-21T08:18:09.166Z,21.23
2023-05-21T08:20:45.204Z,21.38
2023-05-21T08:23:16.251Z,21.40
2023-05-21T08:25:54.138Z,21.47
2023-05-21T08:31:22.853Z,21.42
2023-05-21T08:33:59.663Z,21.57
2023-05-21T08:36:52.490Z,21.81
2023-05-21T08:39:50.241Z,21.74
2023-05-21T08:42:44.409Z,21.86
2023-05-21T08:45:29.594Z,22.00
2023-05-21T08:48:08.779Z,22.15
2023-05-21T08:50:46.957Z,22.29
2023-05-21T08:53:28.536Z,22.36
2023-05-21T08:55:58.707Z,22.34
2023-05-21T08:58:59.488Z,22.54
2023-05-21T09:01:37.893Z,22.49
2023-05-21T09:04:26.281Z,22.25
2023-05-21T09:07:01.786Z,22.35
2023-05-21T09:10:24.977Z,22.56
2023-05-21T09:12:53.926Z,22.66
2023-05-21T09:15:22.655Z,22.48
2023-05-21T09:17:56.921Z,22.61
2023-05-21T09:20:45.811Z,22.79
2023-05-21T09:23:21.480Z,22.97
2023-05-21T09:25:55.159Z,23.12
2023-05-21T09:28:29.487Z,23.29
2023-05-21T09:31:26.617Z,23.25
2023-05-21T09:34:00.016Z,23.26
2023-05-21T09:36:30.992Z,23.46
2023-05-21T09:39:08.990Z,23.48
2023-05-21T09:41:41.416Z,23.66
2023-05-21T09:44:15.028Z,23.61
2023-05-21T09:46:49.123Z,23.46
2023-05-21T09:49:31.863Z,23.73
2023-05-21T09:52:12.200Z,23.80
2023-05-21T09:54:43.986Z,23.86
2023-05-21T09:57:20.121Z,24.07
2023-05-21T09:59:54.202Z,24.04
2023-05-21T10:02:43.589Z,24.06
2023-05-21T10:05:15.361Z,23.84
2023-05-21T10:07:54.753Z,23.90
2023-05-21T10:10:32.487Z,24.18
2023-05-21T10:13:18.543Z,24.36
2023-05-21T10:15:54.427Z,24.40
2023-05-21T10:18:29.088Z,24.37
2023-05-21T10:21:00.224Z,24.27
2023-05-21T10:23:33.657Z,24.43
2023-05-21T10:26:07.840Z,24.45
2023-05-21T10:28:38.173Z,23.75
2023-05-21T10:31:18.897Z,23.68
2023-05-21T10:33:52.204Z,24.22
2023-05-21T10:36:33.307Z,24.52
2023-05-21T10:39:15.787Z,24.20
2023-05-21T10:42:04.284Z,23.96
2023-05-21T10:44:55.452Z,24.15
2023-05-21T10:48:05.533Z,24.57
2023-05-21T10:51:06.699Z,24.72
2023-05-21T10:54:15.017Z,24.36
2023-05-21T10:56:56.144Z,24.61
2023-05-21T10:59:55.246Z,25.01
2023-05-21T11:02:48.696Z,24.81
2023-05-21T11:05:19.852Z,24.70
2023-05-21T11:08:06.459Z,24.63
2023-05-21T11:10:44.019Z,24.89
2023-05-21T11:13:17.136Z,24.94
2023-05-21T11:16:08.707Z,25.28
2023-05-21T11:18:47.335Z,25.18
2023-05-21T11:21:33.482Z,24.46
2023-05-21T11:24:07.203Z,24.65
2023-05-21T11:27:01.929Z,25.06
2023-05-21T11:29:49.531Z,25.28
2023-05-21T11:32:38.099Z,25.11
2023-05-21T11:35:09.702Z,25.00
2023-05-21T11:37:46.400Z,24.68
2023-05-21T11:40:26.431Z,24.42
2023-05-21T11:43:04.962Z,23.77
2023-05-21T11:45:46.963Z,24.41
2023-05-21T11:48:17.371Z,24.87
2023-05-21T11:50:51.393Z,24.83
2023-05-21T11:53:22.005Z,24.57
2023-05-21T11:55:57.971Z,24.97
2023-05-21T11:58:26.751Z,25.25
2023-05-21T12:00:58.176Z,25.36
2023-05-21T12:03:43.824Z,25.74
2023-05-21T12:06:19.802Z,25.18
2023-05-21T12:08:58.309Z,24.90
2023-05-21T12:11:28.419Z,24.88
2023-05-21T12:13:59.232Z,24.98
2023-05-21T12:16:30.497Z,24.99
2023-05-21T12:21:46.579Z,25.27
2023-05-21T12:24:33.643Z,25.45
2023-05-21T12:27:12.172Z,25.14
2023-05-21T12:29:55.551Z,25.42
2023-05-21T12:32:26.480Z,25.24
2023-05-21T12:35:10.309Z,25.88
2023-05-21T12:37:43.989Z,25.61
2023-05-21T12:40:48.239Z,25.81
2023-05-21T12:43:22.073Z,25.89
2023-05-21T12:46:02.767Z,25.11
2023-05-21T12:48:46.688Z,24.64
2023-05-21T12:51:25.351Z,24.69
2023-05-21T12:54:02.682Z,24.31
2023-05-21T12:56:52.439Z,24.34
2023-05-21T12:59:24.364Z,24.21
2023-05-21T13:02:06.621Z,24.02
2023-05-21T13:04:37.785Z,23.79
2023-05-21T13:07:16.337Z,23.39
2023-05-21T13:09:48.843Z,24.42
2023-05-21T13:12:25.665Z,24.93
2023-05-21T13:15:05.761Z,25.26
2023-05-21T13:17:37.183Z,25.14
2023-05-21T13:20:16.896Z,25.51
2023-05-21T13:22:58.693Z,25.72
2023-05-21T13:25:29.865Z,25.94
2023-05-21T13:28:04.386Z,26.15
2023-05-21T13:30:38.665Z,26.27
2023-05-21T13:33:14.608Z,26.14
2023-05-21T13:36:11.238Z,25.79
2023-05-21T13:38:48.473Z,25.43
2023-05-21T13:41:26.577Z,25.86
2023-05-21T13:43:59.513Z,26.24
2023-05-21T13:46:30.900Z,26.80
2023-05-21T13:49:04.877Z,26.83
2023-05-21T13:51:39.576Z,26.91
2023-05-21T13:54:12.966Z,26.82
2023-05-21T13:59:29.639Z,25.53
2023-05-21T14:02:04.208Z,25.82
2023-05-21T14:04:39.235Z,25.89
2023-05-21T14:07:19.912Z,26.13
2023-05-21T14:09:48.340Z,25.38
2023-05-21T14:12:17.934Z,26.05
2023-05-21T14:14:49.887Z,25.48
2023-05-21T14:17:21.847Z,26.30
2023-05-21T14:19:52.449Z,25.87
2023-05-21T14:22:29.652Z,25.02
2023-05-21T14:25:04.471Z,24.22
2023-05-21T14:27:50.490Z,26.85
2023-05-21T14:30:24.293Z,29.55
2023-05-21T14:32:53.988Z,32.63
2023-05-21T14:35:32.614Z,33.08
2023-05-21T14:38:09.025Z,31.41
2023-05-21T14:40:37.341Z,33.86
2023-05-21T14:43:14.214Z,33.84
2023-05-21T14:45:48.596Z,28.48
2023-05-21T14:48:25.560Z,26.26
2023-05-21T14:50:54.474Z,28.45
2023-05-21T14:56:09.014Z,32.64
2023-05-21T14:58:48.208Z,30.70
2023-05-21T15:01:21.694Z,31.44
2023-05-21T15:03:52.361Z,30.93
2023-05-21T15:06:22.772Z,32.14
2023-05-21T15:08:51.810Z,33.61
2023-05-21T15:11:22.151Z,33.20
2023-05-21T15:13:50.378Z,30.69
2023-05-21T15:16:35.337Z,29.96
2023-05-21T15:19:08.569Z,27.92
2023-05-21T15:21:41.368Z,29.68
2023-05-21T15:24:19.427Z,31.04
2023-05-21T15:26:50.767Z,31.18
2023-05-21T15:29:24.278Z,27.10
2023-05-21T15:31:58.492Z,25.79
2023-05-21T15:34:35.449Z,25.14
2023-05-21T15:37:13.371Z,24.67
2023-05-21T15:39:43.960Z,24.04
2023-05-21T15:42:16.762Z,23.66
2023-05-21T15:44:50.455Z,23.36
2023-05-21T15:47:26.503Z,23.00
2023-05-21T15:50:17.206Z,23.22
2023-05-21T15:52:53.746Z,24.14
2023-05-21T15:55:42.142Z,24.35
2023-05-21T15:58:12.896Z,24.28
2023-05-21T16:00:44.352Z,24.57
2023-05-21T16:03:28.880Z,24.76
2023-05-21T16:05:58.646Z,24.72
2023-05-21T16:08:44.737Z,24.74
2023-05-21T16:11:25.025Z,24.10
2023-05-21T16:16:44.208Z,23.14
2023-05-21T16:19:14.637Z,22.91
2023-05-21T16:21:47.727Z,23.28
2023-05-21T16:27:06.732Z,23.16
2023-05-21T16:29:45.086Z,23.26
2023-05-21T16:32:21.902Z,22.70
2023-05-21T16:35:05.325Z,22.77
2023-05-21T16:37:51.635Z,22.76
2023-05-21T16:40:23.030Z,22.60
2023-05-21T16:42:54.368Z,22.53
2023-05-21T16:45:33.945Z,22.33
2023-05-21T16:48:07.777Z,22.22
2023-05-21T16:50:38.860Z,22.45
2023-05-21T16:53:10.181Z,22.53
2023-05-21T16:55:43.480Z,22.06
2023-05-21T16:58:25.363Z,21.50
2023-05-21T17:00:58.621Z,21.25
2023-05-21T17:03:29.821Z,20.76
2023-05-21T17:05:58.213Z,21.23
2023-05-21T17:08:27.271Z,21.06
2023-05-21T17:11:01.436Z,20.77
2023-05-21T17:13:29.422Z,20.98
2023-05-21T17:16:03.642Z,21.34
2023-05-21T17:18:34.646Z,21.61
2023-05-21T17:21:06.218Z,21.39
2023-05-21T17:23:35.636Z,21.07
2023-05-21T17:26:07.500Z,20.97
2023-05-21T17:28:43.085Z,21.41
2023-05-21T17:31:20.486Z,21.51
2023-05-21T17:33:59.794Z,21.54
2023-05-21T17:36:40.047Z,21.47
2023-05-21T17:39:11.181Z,21.08
2023-05-21T17:41:44.668Z,20.70
2023-05-21T17:44:17.098Z,20.28
2023-05-21T17:46:46.158Z,19.93
2023-05-21T17:49:17.694Z,20.12
2023-05-21T17:51:58.684Z,19.92
2023-05-21T17:54:35.126Z,19.83
2023-05-21T17:57:06.717Z,19.70
2023-05-21T17:59:41.240Z,19.37
2023-05-21T18:02:12.613Z,19.55
2023-05-21T18:04:46.125Z,19.69
2023-05-21T18:07:16.619Z,19.32
2023-05-21T18:09:49.801Z,19.21
2023-05-21T18:12:20.615Z,18.77
2023-05-21T18:14:54.565Z,18.90
2023-05-21T18:17:23.899Z,18.72
2023-05-21T18:19:52.644Z,18.48
2023-05-21T18:22:26.463Z,18.57
2023-05-21T18:25:01.692Z,18.37
2023-05-21T18:27:35.004Z,18.09
2023-05-21T18:30:19.998Z,18.14
2023-05-21T18:32:56.470Z,18.26
2023-05-21T18:38:16.559Z,18.15
2023-05-21T18:41:03.468Z,18.01
2023-05-21T18:43:40.385Z,18.03
2023-05-21T18:46:10.784Z,17.92
2023-05-21T18:48:43.776Z,17.97
2023-05-21T18:51:24.104Z,17.99
2023-05-21T18:53:54.099Z,17.77
2023-05-21T18:56:35.857Z,17.61
2023-05-21T18:59:06.570Z,17.35
2023-05-21T19:01:39.965Z,17.41
2023-05-21T19:04:10.467Z,17.40
2023-05-21T19:06:44.266Z,17.23
2023-05-21T19:09:15.247Z,17.30
2023-05-21T19:14:30.785Z,16.90
2023-05-21T19:17:01.444Z,16.63
2023-05-21T19:19:33.319Z,16.61
2023-05-21T19:22:17.420Z,16.77
2023-05-21T19:24:48.701Z,16.76
2023-05-21T19:30:04.339Z,16.43
2023-05-21T19:32:35.831Z,16.09
2023-05-21T19:35:10.191Z,16.13
2023-05-21T19:40:26.478Z,15.40
2023-05-21T19:45:45.701Z,15.35
2023-05-21T19:48:38.872Z,15.69
2023-05-21T19:51:14.504Z,15.53
2023-05-21T19:53:48.147Z,15.61
2023-05-21T19:56:24.730Z,15.18
2023-05-21T19:59:00.781Z,15.42
2023-05-21T20:01:35.261Z,15.38
2023-05-21T20:04:06.946Z,15.55
2023-05-21T20:06:48.754Z,15.70
2023-05-21T20:09:33.341Z,15.16
2023-05-21T20:12:06.481Z,14.99
2023-05-21T20:14:38.126Z,14.81
2023-05-21T20:17:09.156Z,14.94
2023-05-21T20:19:45.052Z,14.68
2023-05-21T20:22:16.171Z,14.48
2023-05-21T20:24:52.669Z,14.40
2023-05-21T20:27:28.672Z,14.90
2023-05-21T20:30:00.399Z,14.89
2023-05-21T20:32:30.815Z,14.59
2023-05-21T20:37:44.741Z,14.15
2023-05-21T20:40:17.648Z,14.24
2023-05-21T20:42:58.303Z,14.14
2023-05-21T20:45:29.973Z,14.37
2023-05-21T20:48:00.448Z,14.20
2023-05-21T20:50:44.930Z,14.19
2023-05-21T20:53:21.277Z,14.22
2023-05-21T20:55:57.667Z,14.21
2023-05-21T20:58:26.219Z,13.91
2023-05-21T21:00:55.749Z,14.44
2023-05-21T21:03:32.997Z,14.39
2023-05-21T21:06:11.796Z,13.66
2023-05-21T21:08:48.668Z,14.30
2023-05-21T21:11:22.757Z,14.32
2023-05-21T21:13:54.157Z,14.46
2023-05-21T21:16:29.194Z,13.94
2023-05-21T21:18:59.916Z,14.15
2023-05-21T21:21:37.133Z,14.22
2023-05-21T21:24:11.045Z,14.43
2023-05-21T21:27:00.640Z,14.33
2023-05-21T21:29:35.835Z,14.30
2023-05-21T21:32:19.124Z,14.30
2023-05-21T21:34:51.020Z,14.16
2023-05-21T21:37:24.690Z,13.79
2023-05-21T21:40:08.682Z,13.91
2023-05-21T21:42:39.604Z,13.78
2023-05-21T21:45:18.779Z,13.64
2023-05-21T21:47:50.678Z,13.68
2023-05-21T21:50:26.682Z,13.87
2023-05-21T21:53:10.190Z,13.87
2023-05-21T21:55:46.828Z,13.75
2023-05-21T21:58:20.877Z,13.72
2023-05-21T22:00:51.782Z,13.95
2023-05-21T22:03:37.629Z,13.84
2023-05-21T22:06:15.753Z,13.54
2023-05-21T22:08:52.068Z,13.69
2023-05-21T22:11:34.210Z,13.82
2023-05-21T22:14:09.182Z,14.21
2023-05-21T22:16:53.664Z,14.64
2023-05-21T22:19:23.967Z,15.63
2023-05-21T22:21:57.244Z,16.12
2023-05-21T22:24:32.590Z,16.27
2023-05-21T22:27:04.075Z,16.12
2023-05-21T22:29:34.907Z,15.90
2023-05-21T22:32:09.083Z,16.22
2023-05-21T22:34:44.230Z,16.90
2023-05-21T22:40:04.833Z,16.82
2023-05-21T22:42:36.516Z,16.71
2023-05-21T22:45:06.786Z,16.67
2023-05-21T22:47:41.592Z,16.39
2023-05-21T22:50:18.539Z,16.24
2023-05-21T22:52:47.700Z,15.98
2023-05-21T22:55:21.189Z,15.95
2023-05-21T22:57:51.965Z,15.81
2023-05-21T23:00:35.001Z,15.64
2023-05-21T23:03:08.458Z,15.26
2023-05-21T23:05:38.817Z,14.47
2023-05-21T23:08:14.878Z,14.39
2023-05-21T23:10:46.592Z,14.40
2023-05-21T23:13:17.833Z,14.66
2023-05-21T23:15:53.327Z,14.57
2023-05-21T23:21:11.636Z,14.76
2023-05-21T23:23:43.855Z,14.71
2023-05-21T23:26:17.438Z,14.54
2023-05-21T23:28:55.182Z,14.54
2023-05-21T23:31:29.299Z,14.46
2023-05-21T23:34:11.956Z,14.36
2023-05-21T23:36:46.059Z,14.22
2023-05-21T23:39:29.668Z,14.13
2023-05-21T23:42:06.405Z,14.01
2023-05-21T23:44:36.889Z,14.17
2023-05-21T23:47:10.822Z,14.13
2023-05-21T23:49:47.467Z,14.30
2023-05-21T23:52:19.457Z,14.15
2023-05-21T23:54:50.101Z,13.90
2023-05-21T23:57:20.482Z,13.96
2023-05-21T23:59:50.837Z,13.89
